createdAt,value
2019-05-18T00:00:09.082Z,95592.34
2019-05-18T00:02:37.414Z,95592.17
2019-05-18T00:05:08.874Z,95597.72
2019-05-18T00:07:37.179Z,95599.07
2019-05-18T00:10:06.398Z,95604.45
2019-05-18T00:12:34.888Z,95604.63
2019-05-18T00:15:04.331Z,95599.07
2019-05-18T00:17:32.653Z,95600.41
2019-05-18T00:20:00.953Z,95602.45
2019-05-18T00:22:29.275Z,95603.28
2019-05-18T00:24:57.641Z,95597.90
2019-05-18T00:27:25.955Z,95596.08
2019-05-18T00:29:54.450Z,95603.80
2019-05-18T00:32:23.120Z,95602.97
2019-05-18T00:34:51.470Z,95608.66
2019-05-18T00:37:19.775Z,95605.31
2019-05-18T00:39:48.242Z,95608.34
2019-05-18T00:42:16.599Z,95606.14
2019-05-18T00:44:44.983Z,95606.14
2019-05-18T00:47:13.276Z,95598.11
2019-05-18T00:49:41.696Z,95586.25
2019-05-18T00:52:10.103Z,95604.80
2019-05-18T00:54:38.484Z,95603.66
2019-05-18T00:57:06.850Z,95603.14
2019-05-18T00:59:35.334Z,95602.80
2019-05-18T01:02:03.694Z,95603.14
2019-05-18T01:04:32.020Z,95605.83
2019-05-18T01:07:00.415Z,95599.11
2019-05-18T01:09:28.909Z,95595.91
2019-05-18T01:11:57.298Z,95594.73
2019-05-18T01:14:25.605Z,95572.33
2019-05-18T01:16:54.022Z,95588.87
2019-05-18T01:19:22.440Z,95590.70
2019-05-18T01:21:50.753Z,95583.48
2019-05-18T01:24:19.435Z,95583.66
2019-05-18T01:26:47.727Z,95557.41
2019-05-18T01:29:16.028Z,95582.50
2019-05-18T01:31:44.346Z,95577.46
2019-05-18T01:34:12.640Z,95558.23
2019-05-18T01:36:40.954Z,95571.73
2019-05-18T01:39:09.340Z,95571.56
2019-05-18T01:41:37.745Z,95550.86
2019-05-18T01:44:06.179Z,95572.56
2019-05-18T01:46:34.859Z,95575.25
2019-05-18T01:49:03.315Z,95572.25
2019-05-18T01:51:31.629Z,95571.73
2019-05-18T01:53:59.991Z,95574.95
2019-05-18T01:56:28.316Z,95565.95
2019-05-18T01:58:56.605Z,95571.91
2019-05-18T02:01:24.935Z,95570.27
2019-05-18T02:03:53.226Z,95565.78
2019-05-18T02:06:21.550Z,95564.44
2019-05-18T02:08:49.833Z,95571.91
2019-05-18T02:11:18.151Z,95575.12
2019-05-18T02:13:46.513Z,95573.47
2019-05-18T02:16:14.829Z,95569.95
2019-05-18T02:18:43.130Z,95551.42
2019-05-18T02:21:11.450Z,95569.95
2019-05-18T02:23:40.191Z,95567.27
2019-05-18T02:26:08.479Z,95573.64
2019-05-18T02:28:36.789Z,95568.27
2019-05-18T02:31:07.449Z,95569.61
2019-05-18T02:33:35.118Z,95561.23
2019-05-18T02:36:03.545Z,95558.23
2019-05-18T02:38:31.863Z,95540.84
2019-05-18T02:41:00.162Z,95561.41
2019-05-18T02:43:28.472Z,95563.58
2019-05-18T02:45:56.769Z,95561.72
2019-05-18T02:48:25.155Z,95551.55
2019-05-18T02:50:53.509Z,95558.72
2019-05-18T02:53:21.824Z,95559.23
2019-05-18T02:55:50.116Z,95553.89
2019-05-18T02:58:18.434Z,95558.20
2019-05-18T03:00:47.484Z,95551.66
2019-05-18T03:03:15.945Z,95529.95
2019-05-18T03:05:46.455Z,95550.31
2019-05-18T03:08:14.775Z,95550.65
2019-05-18T03:10:43.127Z,95555.69
2019-05-18T03:13:11.431Z,95555.69
2019-05-18T03:15:39.829Z,95557.03
2019-05-18T03:18:08.228Z,95549.83
2019-05-18T03:20:36.616Z,95546.28
2019-05-18T03:23:05.009Z,95545.14
2019-05-18T03:25:33.309Z,95534.87
2019-05-18T03:28:01.597Z,95537.55
2019-05-18T03:30:30.004Z,95539.11
2019-05-18T03:32:58.290Z,95543.97
2019-05-18T03:35:27.119Z,95550.04
2019-05-18T03:37:55.392Z,95545.31
2019-05-18T03:40:23.709Z,95541.97
2019-05-18T03:42:52.072Z,95530.64
2019-05-18T03:45:20.427Z,95549.52
2019-05-18T03:47:48.925Z,95549.20
2019-05-18T03:50:17.473Z,95550.55
2019-05-18T03:52:45.765Z,95545.69
2019-05-18T03:55:14.345Z,95548.04
2019-05-18T03:57:42.794Z,95548.04
2019-05-18T04:00:11.615Z,95538.75
2019-05-18T04:02:40.000Z,95547.04
2019-05-18T04:05:09.115Z,95552.41
2019-05-18T04:07:37.388Z,95547.04
2019-05-18T04:10:06.636Z,95542.35
2019-05-18T04:12:35.013Z,95538.80
2019-05-18T04:15:04.242Z,95539.32
2019-05-18T04:17:32.523Z,95544.18
2019-05-18T04:20:00.909Z,95543.35
2019-05-18T04:22:30.816Z,95545.73
2019-05-18T04:25:00.598Z,95548.91
2019-05-18T04:27:28.876Z,95554.28
2019-05-18T04:29:57.305Z,95551.28
2019-05-18T04:32:25.612Z,95535.27
2019-05-18T04:34:53.995Z,95555.31
2019-05-18T04:37:22.301Z,95559.86
2019-05-18T04:39:50.664Z,95560.69
2019-05-18T04:42:18.970Z,95556.83
2019-05-18T04:44:47.661Z,95563.89
2019-05-18T04:47:16.311Z,95561.38
2019-05-18T04:50:03.546Z,95561.90
2019-05-18T04:52:15.005Z,95561.38
2019-05-18T04:54:43.463Z,95560.21
2019-05-18T04:57:11.792Z,95534.30
2019-05-18T04:59:40.083Z,95556.17
2019-05-18T05:02:08.430Z,95556.17
2019-05-18T05:04:36.710Z,95562.90
2019-05-18T05:07:05.028Z,95556.52
2019-05-18T05:09:33.483Z,95558.35
2019-05-18T05:12:01.896Z,95554.32
2019-05-18T05:14:30.367Z,95560.03
2019-05-18T05:16:58.693Z,95562.07
2019-05-18T05:19:27.079Z,95563.24
2019-05-18T05:21:55.386Z,95558.55
2019-05-18T05:24:23.792Z,95558.87
2019-05-18T05:26:52.142Z,95558.22
2019-05-18T05:29:20.401Z,95555.52
2019-05-18T05:31:48.708Z,95553.18
2019-05-18T05:34:16.993Z,95557.90
2019-05-18T05:36:45.303Z,95559.90
2019-05-18T05:39:13.626Z,95560.73
2019-05-18T05:41:41.915Z,95565.27
2019-05-18T05:44:10.224Z,95562.90
2019-05-18T05:46:38.520Z,95558.55
2019-05-18T05:49:06.837Z,95565.27
2019-05-18T05:51:35.145Z,95564.76
2019-05-18T05:54:03.459Z,95556.87
2019-05-18T05:56:31.765Z,95493.91
2019-05-18T05:59:00.067Z,95562.90
2019-05-18T06:01:28.391Z,95562.90
2019-05-18T06:03:56.701Z,95544.36
2019-05-18T06:06:24.999Z,95574.82
2019-05-18T06:08:53.331Z,95572.30
2019-05-18T06:11:21.671Z,95520.66
2019-05-18T06:13:49.995Z,95566.66
2019-05-18T06:16:18.362Z,95576.69
2019-05-18T06:18:46.866Z,95581.54
2019-05-18T06:21:15.232Z,95579.16
2019-05-18T06:23:43.552Z,95538.06
2019-05-18T06:26:11.853Z,95581.20
2019-05-18T06:28:40.150Z,95578.85
2019-05-18T06:31:08.571Z,95575.34
2019-05-18T06:33:36.924Z,95568.27
2019-05-18T06:36:05.311Z,95572.65
2019-05-18T06:38:33.647Z,95570.79
2019-05-18T06:41:01.965Z,95569.76
2019-05-18T06:43:30.263Z,95554.08
2019-05-18T06:45:59.384Z,95575.13
2019-05-18T06:48:27.852Z,95549.08
2019-05-18T06:51:06.892Z,95569.41
2019-05-18T06:53:26.263Z,95577.34
2019-05-18T06:55:54.722Z,95573.48
2019-05-18T06:58:23.746Z,95580.61
2019-05-18T07:00:52.072Z,95582.16
2019-05-18T07:03:20.563Z,95570.92
2019-05-18T07:05:49.149Z,95572.30
2019-05-18T07:08:17.493Z,95582.91
2019-05-18T07:10:45.808Z,95580.42
2019-05-18T07:13:14.475Z,95583.73
2019-05-18T07:15:42.957Z,95581.77
2019-05-18T07:18:11.319Z,95578.73
2019-05-18T07:20:39.701Z,95578.63
2019-05-18T07:23:08.026Z,95577.45
2019-05-18T07:25:36.331Z,95575.28
2019-05-18T07:28:04.808Z,95582.97
2019-05-18T07:30:33.122Z,95574.59
2019-05-18T07:33:01.431Z,95570.42
2019-05-18T07:35:29.747Z,95568.56
2019-05-18T07:37:58.176Z,95568.88
2019-05-18T07:40:26.771Z,95572.77
2019-05-18T07:42:55.245Z,95577.14
2019-05-18T07:45:23.605Z,95573.11
2019-05-18T07:47:51.924Z,95573.97
2019-05-18T07:50:20.505Z,95575.31
2019-05-18T07:52:48.889Z,95572.11
2019-05-18T07:55:17.172Z,95574.31
2019-05-18T07:57:45.517Z,95571.28
2019-05-18T08:00:14.100Z,95579.63
2019-05-18T08:02:42.480Z,95575.39
2019-05-18T08:05:10.837Z,95572.56
2019-05-18T08:07:39.321Z,95572.40
2019-05-18T08:10:09.463Z,95572.84
2019-05-18T08:12:37.864Z,95575.68
2019-05-18T08:15:08.156Z,95575.25
2019-05-18T08:17:36.482Z,95579.25
2019-05-18T08:20:07.207Z,95581.36
2019-05-18T08:22:35.553Z,95580.98
2019-05-18T08:25:05.850Z,95577.56
2019-05-18T08:27:34.163Z,95569.55
2019-05-18T08:30:02.494Z,95565.80
2019-05-18T08:32:30.786Z,95569.31
2019-05-18T08:34:59.113Z,95572.42
2019-05-18T08:37:27.549Z,95572.28
2019-05-18T08:39:55.873Z,95578.09
2019-05-18T08:42:24.241Z,95578.64
2019-05-18T08:44:52.558Z,95576.25
2019-05-18T08:47:20.888Z,95572.08
2019-05-18T08:49:49.188Z,95576.06
2019-05-18T08:52:17.498Z,95576.71
2019-05-18T08:54:45.823Z,95572.65
2019-05-18T08:57:14.138Z,95573.29
2019-05-18T08:59:42.490Z,95532.97
2019-05-18T09:02:10.857Z,95576.25
2019-05-18T09:04:40.406Z,95571.01
2019-05-18T09:07:08.718Z,95572.98
2019-05-18T09:09:37.221Z,95564.91
2019-05-18T09:12:05.869Z,95565.54
2019-05-18T09:14:34.314Z,95573.88
2019-05-18T09:17:02.566Z,95570.14
2019-05-18T09:19:30.945Z,95565.59
2019-05-18T09:21:59.217Z,95566.73
2019-05-18T09:24:27.575Z,95567.70
2019-05-18T09:26:55.854Z,95571.50
2019-05-18T09:29:24.221Z,95568.27
2019-05-18T09:31:52.660Z,95562.38
2019-05-18T09:34:21.026Z,95561.31
2019-05-18T09:36:49.458Z,95557.59
2019-05-18T09:39:19.282Z,95560.77
2019-05-18T09:41:47.611Z,95554.01
2019-05-18T09:44:16.268Z,95557.87
2019-05-18T09:46:44.754Z,95553.94
2019-05-18T09:49:13.054Z,95550.04
2019-05-18T09:51:41.366Z,95550.17
2019-05-18T09:54:09.706Z,95554.69
2019-05-18T09:56:38.106Z,95551.30
2019-05-18T09:59:06.629Z,95555.78
2019-05-18T10:01:35.051Z,95559.47
2019-05-18T10:04:03.347Z,95559.08
2019-05-18T10:06:31.839Z,95557.91
2019-05-18T10:09:00.131Z,95552.97
2019-05-18T10:11:28.494Z,95549.59
2019-05-18T10:13:56.788Z,95550.58
2019-05-18T10:16:25.108Z,95550.71
2019-05-18T10:18:53.405Z,95551.02
2019-05-18T10:21:21.733Z,95544.77
2019-05-18T10:23:50.025Z,95545.94
2019-05-18T10:26:18.337Z,95553.62
2019-05-18T10:28:46.719Z,95552.92
2019-05-18T10:31:15.282Z,95550.58
2019-05-18T10:33:43.595Z,95546.33
2019-05-18T10:36:11.984Z,95545.80
2019-05-18T10:38:40.229Z,95542.63
2019-05-18T10:41:08.535Z,95543.45
2019-05-18T10:43:36.873Z,95537.73
2019-05-18T10:46:05.236Z,95501.83
2019-05-18T10:48:33.555Z,95544.23
2019-05-18T10:51:05.301Z,95541.67
2019-05-18T10:53:31.877Z,95542.50
2019-05-18T10:56:00.177Z,95539.97
2019-05-18T10:58:28.531Z,95540.61
2019-05-18T11:00:56.842Z,95533.19
2019-05-18T11:03:25.288Z,95533.84
2019-05-18T11:05:53.579Z,95536.31
2019-05-18T11:08:22.112Z,95530.45
2019-05-18T11:10:50.573Z,95531.58
2019-05-18T11:13:19.238Z,95532.75
2019-05-18T11:15:47.596Z,95532.56
2019-05-18T11:18:15.935Z,95526.66
2019-05-18T11:20:44.241Z,95529.66
2019-05-18T11:23:12.551Z,95528.66
2019-05-18T11:25:41.615Z,95525.63
2019-05-18T11:28:09.983Z,95524.44
2019-05-18T11:30:38.292Z,95523.09
2019-05-18T11:33:06.673Z,95527.96
2019-05-18T11:35:35.127Z,95521.05
2019-05-18T11:38:03.508Z,95519.70
2019-05-18T11:40:31.899Z,95511.42
2019-05-18T11:43:00.320Z,95516.44
2019-05-18T11:45:28.972Z,95512.06
2019-05-18T11:47:57.277Z,95507.20
2019-05-18T11:50:25.731Z,95507.02
2019-05-18T11:52:54.191Z,95511.18
2019-05-18T11:55:24.814Z,95510.84
2019-05-18T11:57:53.182Z,95506.97
2019-05-18T12:00:22.176Z,95497.84
2019-05-18T12:02:50.544Z,95503.75
2019-05-18T12:05:18.867Z,95502.71
2019-05-18T12:07:47.206Z,95495.98
2019-05-18T12:10:18.613Z,95486.44
2019-05-18T12:12:47.136Z,95480.16
2019-05-18T12:15:15.875Z,95484.02
2019-05-18T12:17:44.247Z,95484.85
2019-05-18T12:20:13.032Z,95477.08
2019-05-18T12:22:41.317Z,95480.29
2019-05-18T12:25:10.483Z,95476.89
2019-05-18T12:27:38.927Z,95477.20
2019-05-18T12:30:08.628Z,95467.78
2019-05-18T12:32:37.126Z,95472.16
2019-05-18T12:35:07.639Z,95475.86
2019-05-18T12:37:35.963Z,95477.66
2019-05-18T12:40:06.122Z,95462.86
2019-05-18T12:42:34.503Z,95461.33
2019-05-18T12:45:02.988Z,95464.32
2019-05-18T12:47:31.485Z,95464.32
2019-05-18T12:49:59.784Z,95463.31
2019-05-18T12:52:28.157Z,95451.84
2019-05-18T12:54:56.499Z,95455.05
2019-05-18T12:57:24.823Z,95460.22
2019-05-18T12:59:53.184Z,95456.52
2019-05-18T13:02:21.512Z,95457.53
2019-05-18T13:04:49.814Z,95452.48
2019-05-18T13:07:18.162Z,95448.44
2019-05-18T13:09:46.541Z,95444.70
2019-05-18T13:12:15.067Z,95446.58
2019-05-18T13:14:43.374Z,95446.39
2019-05-18T13:17:11.714Z,95440.48
2019-05-18T13:19:40.054Z,95435.10
2019-05-18T13:22:08.487Z,95432.22
2019-05-18T13:24:44.914Z,95437.42
2019-05-18T13:27:06.778Z,95423.23
2019-05-18T13:29:35.154Z,95436.56
2019-05-18T13:32:03.701Z,95430.20
2019-05-18T13:34:32.055Z,95431.03
2019-05-18T13:37:00.423Z,95424.59
2019-05-18T13:39:28.830Z,95427.29
2019-05-18T13:41:57.214Z,95424.59
2019-05-18T13:44:25.532Z,95420.07
2019-05-18T13:46:54.013Z,95418.11
2019-05-18T13:49:22.321Z,95421.75
2019-05-18T13:51:50.777Z,95410.81
2019-05-18T13:54:19.107Z,95423.10
2019-05-18T13:56:47.484Z,95426.84
2019-05-18T13:59:15.812Z,95435.92
2019-05-18T14:01:44.110Z,95435.63
2019-05-18T14:04:12.495Z,95392.62
2019-05-18T14:06:40.892Z,95490.13
2019-05-18T14:09:09.225Z,95493.05
2019-05-18T14:11:37.529Z,95495.35
2019-05-18T14:14:06.049Z,95502.09
2019-05-18T14:16:34.389Z,95489.78
2019-05-18T14:19:03.171Z,95510.16
2019-05-18T14:21:31.455Z,95495.34
2019-05-18T14:23:59.873Z,95517.41
2019-05-18T14:26:28.310Z,95527.75
2019-05-18T14:28:56.754Z,95536.97
2019-05-18T14:31:25.048Z,95542.17
2019-05-18T14:33:53.420Z,95546.52
2019-05-18T14:36:21.835Z,95540.95
2019-05-18T14:38:50.167Z,95542.30
2019-05-18T14:41:18.714Z,95543.13
2019-05-18T14:43:46.997Z,95542.11
2019-05-18T14:46:15.331Z,95544.66
2019-05-18T14:48:43.745Z,95528.24
2019-05-18T14:51:12.025Z,95540.09
2019-05-18T14:53:40.507Z,95541.96
2019-05-18T14:56:08.958Z,95538.78
2019-05-18T14:58:37.366Z,95552.52
2019-05-18T15:01:07.007Z,95548.82
2019-05-18T15:03:35.300Z,95548.82
2019-05-18T15:06:03.711Z,95536.00
2019-05-18T15:08:32.000Z,95539.94
2019-05-18T15:11:00.401Z,95536.00
2019-05-18T15:13:28.705Z,95529.88
2019-05-18T15:15:57.294Z,95535.48
2019-05-18T15:18:25.599Z,95522.74
2019-05-18T15:20:53.989Z,95520.33
2019-05-18T15:23:22.368Z,95509.77
2019-05-18T15:25:51.475Z,95481.58
2019-05-18T15:28:20.118Z,95431.43
2019-05-18T15:30:48.453Z,95479.11
2019-05-18T15:33:16.794Z,95468.55
2019-05-18T15:35:45.215Z,95458.60
2019-05-18T15:38:13.705Z,95462.94
2019-05-18T15:40:42.007Z,95451.04
2019-05-18T15:43:10.305Z,95449.17
2019-05-18T15:45:38.626Z,95451.87
2019-05-18T15:48:07.010Z,95434.13
2019-05-18T15:50:35.350Z,95459.95
2019-05-18T15:53:03.686Z,95462.82
2019-05-18T15:55:32.037Z,95451.87
2019-05-18T15:58:00.331Z,95459.95
2019-05-18T16:00:28.710Z,95454.74
2019-05-18T16:02:57.196Z,95455.91
2019-05-18T16:05:25.508Z,95442.63
2019-05-18T16:07:53.901Z,95443.45
2019-05-18T16:10:22.444Z,95456.73
2019-05-18T16:12:50.807Z,95453.73
2019-05-18T16:15:19.179Z,95447.12
2019-05-18T16:17:47.564Z,95431.97
2019-05-18T16:20:16.289Z,95436.66
2019-05-18T16:22:44.834Z,95423.19
2019-05-18T16:25:13.434Z,95420.49
2019-05-18T16:27:41.831Z,95340.20
2019-05-18T16:30:10.768Z,95428.91
2019-05-18T16:32:39.152Z,95432.95
2019-05-18T16:35:10.861Z,95427.75
2019-05-18T16:37:39.252Z,95432.95
2019-05-18T16:40:08.422Z,95428.58
2019-05-18T16:42:36.844Z,95430.63
2019-05-18T16:45:08.733Z,95432.61
2019-05-18T16:47:37.060Z,95424.87
2019-05-18T16:50:08.946Z,95430.04
2019-05-18T16:52:37.270Z,95433.25
2019-05-18T16:55:09.389Z,95436.77
2019-05-18T16:57:37.696Z,95433.59
2019-05-18T17:00:15.957Z,95427.41
2019-05-18T17:02:42.730Z,95433.06
2019-05-18T17:05:11.985Z,95442.49
2019-05-18T17:07:40.403Z,95454.09
2019-05-18T17:10:09.173Z,95444.36
2019-05-18T17:12:37.557Z,95451.92
2019-05-18T17:15:10.004Z,95451.92
2019-05-18T17:17:38.441Z,95447.06
2019-05-18T17:20:08.153Z,95458.66
2019-05-18T17:22:36.443Z,95448.41
2019-05-18T17:25:05.497Z,95465.58
2019-05-18T17:27:33.889Z,95477.17
2019-05-18T17:30:02.569Z,95476.69
2019-05-18T17:32:30.881Z,95474.81
2019-05-18T17:34:59.300Z,95471.48
2019-05-18T17:37:27.634Z,95468.79
2019-05-18T17:39:55.953Z,95479.04
2019-05-18T17:42:24.325Z,95481.92
2019-05-18T17:44:52.640Z,95492.51
2019-05-18T17:47:21.182Z,95502.12
2019-05-18T17:49:49.520Z,95507.32
2019-05-18T17:52:17.825Z,95484.73
2019-05-18T17:54:46.319Z,95503.98
2019-05-18T17:57:14.623Z,95499.42
2019-05-18T17:59:42.935Z,95505.67
2019-05-18T18:02:12.886Z,95512.58
2019-05-18T18:04:41.225Z,95508.85
2019-05-18T18:07:11.912Z,95462.80
2019-05-18T18:09:40.190Z,95507.20
2019-05-18T18:12:08.471Z,95514.45
2019-05-18T18:14:36.796Z,95510.14
2019-05-18T18:17:05.337Z,95520.20
2019-05-18T18:19:33.657Z,95518.86
2019-05-18T18:22:02.083Z,95524.24
2019-05-18T18:24:30.384Z,95522.89
2019-05-18T18:26:58.698Z,95525.10
2019-05-18T18:29:27.083Z,95524.77
2019-05-18T18:31:55.558Z,95509.91
2019-05-18T18:34:23.836Z,95524.45
2019-05-18T18:36:52.173Z,95524.45
2019-05-18T18:39:20.503Z,95526.78
2019-05-18T18:41:48.920Z,95531.19
2019-05-18T18:44:17.283Z,95529.48
2019-05-18T18:46:45.646Z,95528.65
2019-05-18T18:49:14.016Z,95525.55
2019-05-18T18:51:42.330Z,95526.78
2019-05-18T18:54:12.625Z,95539.42
2019-05-18T18:56:40.810Z,95542.81
2019-05-18T18:59:09.145Z,95545.51
2019-05-18T19:01:37.594Z,95548.72
2019-05-18T19:04:05.870Z,95545.69
2019-05-18T19:06:34.357Z,95540.83
2019-05-18T19:09:03.001Z,95545.38
2019-05-18T19:11:31.376Z,95546.21
2019-05-18T19:13:59.838Z,95545.69
2019-05-18T19:16:28.310Z,95537.30
2019-05-18T19:18:56.641Z,95539.14
2019-05-18T19:21:24.935Z,95549.91
2019-05-18T19:23:53.284Z,95553.64
2019-05-18T19:26:21.598Z,95559.34
2019-05-18T19:28:49.986Z,95562.24
2019-05-18T19:31:18.289Z,95562.12
2019-05-18T19:33:46.770Z,95569.98
2019-05-18T19:36:15.097Z,95584.79
2019-05-18T19:38:43.436Z,95579.41
2019-05-18T19:41:11.728Z,95583.14
2019-05-18T19:43:40.081Z,95583.31
2019-05-18T19:46:08.449Z,95584.14
2019-05-18T19:48:36.896Z,95584.53
2019-05-18T19:51:05.203Z,95586.35
2019-05-18T19:53:33.523Z,95592.22
2019-05-18T19:56:01.900Z,95588.70
2019-05-18T19:58:30.241Z,95586.02
2019-05-18T20:00:58.790Z,95585.19
2019-05-18T20:03:27.103Z,95594.09
2019-05-18T20:05:55.396Z,95596.78
2019-05-18T20:08:23.735Z,95599.34
2019-05-18T20:10:52.045Z,95598.31
2019-05-18T20:13:20.379Z,95596.47
2019-05-18T20:15:48.678Z,95600.69
2019-05-18T20:18:16.999Z,95596.83
2019-05-18T20:20:45.308Z,95591.79
2019-05-18T20:23:13.781Z,95589.58
2019-05-18T20:25:42.101Z,95594.14
2019-05-18T20:28:22.968Z,95590.28
2019-05-18T20:30:40.482Z,95589.45
2019-05-18T20:33:08.814Z,95583.11
2019-05-18T20:35:37.205Z,95558.52
2019-05-18T20:38:05.592Z,95581.55
2019-05-18T20:40:33.983Z,95578.03
2019-05-18T20:43:02.554Z,95577.52
2019-05-18T20:45:31.411Z,95574.83
2019-05-18T20:47:59.800Z,95582.08
2019-05-18T20:50:28.114Z,95582.28
2019-05-18T20:52:56.502Z,95582.47
2019-05-18T20:55:24.830Z,95576.91
2019-05-18T20:57:53.129Z,95577.08
2019-05-18T21:00:21.530Z,95575.39
2019-05-18T21:02:49.861Z,95570.35
2019-05-18T21:05:18.299Z,95581.30
2019-05-18T21:07:48.984Z,95574.57
2019-05-18T21:10:17.587Z,95579.31
2019-05-18T21:12:45.895Z,95583.69
2019-05-18T21:15:14.586Z,95582.00
2019-05-18T21:17:42.892Z,95587.08
2019-05-18T21:20:11.264Z,95583.03
